UPLA180 USHS-UUYH
Flight info
| Callsign | UPLA180 |
|---|---|
| Flight time | 2h 34m |
| Altitude | FL100 |
| Route | NIGOK L870 UNKET T765 LALPA |
| Aircraft | DA42/L-SDFGRY/C |
Departure
| Time | 2026-05-08 18:26 |
|---|---|
| Airport | Sovetskiy Airport (USHS) |
Arrival
| Time | 2026-05-08 21:00 |
|---|---|
| Airport | Ukhta Airport (UUYH) |
| Time | Latitude | Longitude | Altitude | Speed | Heading |
|---|---|---|---|---|---|
| 2026-05-08 18:14 | 61.32697 | 63.60619 | 354 ft | 0 kts | 232° |
| 2026-05-08 18:17 | 61.32697 | 63.60618 | 354 ft | 0 kts | 232° |
| 2026-05-08 18:22 | 61.32697 | 63.60619 | 354 ft | 0 kts | 232° |
| 2026-05-08 18:23 | 61.32694 | 63.60612 | 351 ft | 3 kts | 232° |
| 2026-05-08 18:23 | 61.32666 | 63.60600 | 351 ft | 9 kts | 146° |
| 2026-05-08 18:24 | 61.32611 | 63.60589 | 349 ft | 12 kts | 232° |
| 2026-05-08 18:24 | 61.32595 | 63.60547 | 351 ft | 0 kts | 232° |
| 2026-05-08 18:24 | 61.32578 | 63.60502 | 355 ft | 16 kts | 232° |
| 2026-05-08 18:25 | 61.32532 | 63.60305 | 351 ft | 9 kts | 322° |
| 2026-05-08 18:25 | 61.32535 | 63.60299 | 351 ft | 0 kts | 323° |
| 2026-05-08 18:25 | 61.32577 | 63.60232 | 351 ft | 33 kts | 322° |
| 2026-05-08 18:25 | 61.32908 | 63.59697 | 356 ft | 82 kts | 322° |
| 2026-05-08 18:26 | 61.33394 | 63.58909 | 518 ft | 92 kts | 325° |
| 2026-05-08 18:26 | 61.33912 | 63.58070 | 758 ft | 97 kts | 319° |
| 2026-05-08 18:26 | 61.34197 | 63.56830 | 1053 ft | 97 kts | 276° |
| 2026-05-08 18:26 | 61.34231 | 63.55400 | 1316 ft | 101 kts | 272° |
| 2026-05-08 18:27 | 61.34272 | 63.53915 | 1563 ft | 103 kts | 272° |
| 2026-05-08 18:27 | 61.34294 | 63.52909 | 1737 ft | 105 kts | 272° |
| 2026-05-08 18:27 | 61.34350 | 63.50878 | 2115 ft | 106 kts | 274° |
| 2026-05-08 18:27 | 61.34401 | 63.49346 | 2407 ft | 107 kts | 274° |
| 2026-05-08 18:28 | 61.34453 | 63.47805 | 2689 ft | 107 kts | 274° |
| 2026-05-08 18:28 | 61.34506 | 63.46266 | 2971 ft | 107 kts | 275° |
| 2026-05-08 18:28 | 61.34560 | 63.44729 | 3266 ft | 107 kts | 274° |
| 2026-05-08 18:28 | 61.34613 | 63.43184 | 3549 ft | 106 kts | 274° |
| 2026-05-08 18:29 | 61.34664 | 63.41667 | 3856 ft | 104 kts | 273° |
| 2026-05-08 18:29 | 61.34713 | 63.40181 | 4148 ft | 102 kts | 272° |
| 2026-05-08 18:29 | 61.34763 | 63.38733 | 4484 ft | 98 kts | 271° |
| 2026-05-08 18:29 | 61.34810 | 63.37336 | 4799 ft | 95 kts | 270° |
| 2026-05-08 18:30 | 61.34856 | 63.35978 | 5094 ft | 94 kts | 269° |
| 2026-05-08 18:30 | 61.34901 | 63.34632 | 5380 ft | 93 kts | 269° |
| 2026-05-08 18:30 | 61.34945 | 63.33305 | 5667 ft | 92 kts | 268° |
| 2026-05-08 18:30 | 61.34989 | 63.31986 | 5968 ft | 90 kts | 267° |
| 2026-05-08 18:31 | 61.35031 | 63.30692 | 6257 ft | 89 kts | 266° |
| 2026-05-08 18:31 | 61.35074 | 63.29406 | 6540 ft | 89 kts | 266° |
| 2026-05-08 18:31 | 61.35115 | 63.28136 | 6817 ft | 87 kts | 266° |
| 2026-05-08 18:31 | 61.35156 | 63.26884 | 7098 ft | 86 kts | 266° |
| 2026-05-08 18:32 | 61.35196 | 63.25653 | 7379 ft | 85 kts | 266° |
| 2026-05-08 18:32 | 61.35236 | 63.24443 | 7663 ft | 83 kts | 267° |
| 2026-05-08 18:32 | 61.35275 | 63.23242 | 7940 ft | 83 kts | 267° |
| 2026-05-08 18:32 | 61.35313 | 63.22067 | 8220 ft | 81 kts | 267° |
| 2026-05-08 18:33 | 61.35350 | 63.20906 | 8496 ft | 80 kts | 267° |
| 2026-05-08 18:33 | 61.35388 | 63.19765 | 8777 ft | 78 kts | 267° |
| 2026-05-08 18:33 | 61.35424 | 63.18634 | 9039 ft | 78 kts | 268° |
| 2026-05-08 18:33 | 61.35460 | 63.17523 | 9317 ft | 76 kts | 267° |
| 2026-05-08 18:34 | 61.35495 | 63.16422 | 9567 ft | 76 kts | 267° |
| 2026-05-08 18:34 | 61.35530 | 63.15333 | 9829 ft | 75 kts | 268° |
| 2026-05-08 18:34 | 61.35563 | 63.14255 | 9999 ft | 80 kts | 268° |
| 2026-05-08 18:34 | 61.35602 | 63.12982 | 10002 ft | 97 kts | 269° |
| 2026-05-08 18:35 | 61.35649 | 63.11509 | 10005 ft | 107 kts | 269° |
| 2026-05-08 18:35 | 61.35701 | 63.09912 | 9993 ft | 113 kts | 269° |
| 2026-05-08 18:35 | 61.35754 | 63.08263 | 9989 ft | 115 kts | 269° |
| 2026-05-08 18:35 | 61.35806 | 63.06589 | 9988 ft | 117 kts | 270° |
| 2026-05-08 18:36 | 61.35859 | 63.04892 | 9989 ft | 118 kts | 270° |
| 2026-05-08 18:36 | 61.35912 | 63.03185 | 9987 ft | 119 kts | 269° |
| 2026-05-08 18:36 | 61.35964 | 63.01476 | 9991 ft | 118 kts | 269° |
| 2026-05-08 18:36 | 61.36017 | 62.99770 | 10000 ft | 118 kts | 269° |
| 2026-05-08 18:37 | 61.36069 | 62.98064 | 9994 ft | 118 kts | 269° |
| 2026-05-08 18:37 | 61.36121 | 62.96366 | 9995 ft | 118 kts | 269° |
| 2026-05-08 18:37 | 61.36172 | 62.94668 | 9995 ft | 117 kts | 269° |
| 2026-05-08 18:37 | 61.36225 | 62.92970 | 9996 ft | 118 kts | 269° |
| 2026-05-08 18:38 | 61.36275 | 62.91278 | 9997 ft | 117 kts | 269° |
| 2026-05-08 18:38 | 61.36325 | 62.89584 | 9993 ft | 117 kts | 269° |
| 2026-05-08 18:38 | 61.36376 | 62.87896 | 9995 ft | 117 kts | 269° |
| 2026-05-08 18:38 | 61.36426 | 62.86212 | 9992 ft | 117 kts | 269° |
| 2026-05-08 18:39 | 61.36476 | 62.84534 | 9995 ft | 116 kts | 268° |
| 2026-05-08 18:39 | 61.36525 | 62.82855 | 9996 ft | 116 kts | 268° |
| 2026-05-08 18:39 | 61.36574 | 62.81189 | 9993 ft | 115 kts | 268° |
| 2026-05-08 18:39 | 61.36623 | 62.79530 | 9995 ft | 115 kts | 268° |
| 2026-05-08 18:40 | 61.36671 | 62.77872 | 9993 ft | 115 kts | 268° |
| 2026-05-08 18:40 | 61.36720 | 62.76212 | 9992 ft | 117 kts | 269° |
| 2026-05-08 18:40 | 61.36769 | 62.74513 | 9990 ft | 118 kts | 269° |
| 2026-05-08 18:40 | 61.36818 | 62.72808 | 9996 ft | 118 kts | 269° |
| 2026-05-08 18:41 | 61.36867 | 62.71099 | 9997 ft | 119 kts | 269° |
| 2026-05-08 18:41 | 61.36916 | 62.69382 | 9996 ft | 119 kts | 269° |
| 2026-05-08 18:41 | 61.36965 | 62.67662 | 9997 ft | 119 kts | 269° |
| 2026-05-08 18:41 | 61.37086 | 62.65938 | 9991 ft | 121 kts | 273° |
| 2026-05-08 18:42 | 61.37220 | 62.64209 | 9991 ft | 121 kts | 273° |
| 2026-05-08 18:42 | 61.37356 | 62.62477 | 9991 ft | 121 kts | 273° |
| 2026-05-08 18:42 | 61.37490 | 62.60747 | 9991 ft | 121 kts | 273° |
| 2026-05-08 18:42 | 61.37624 | 62.59023 | 9991 ft | 120 kts | 273° |
| 2026-05-08 18:43 | 61.37757 | 62.57305 | 9992 ft | 120 kts | 273° |
| 2026-05-08 18:43 | 61.37890 | 62.55590 | 9993 ft | 120 kts | 273° |
| 2026-05-08 18:43 | 61.38023 | 62.53867 | 9993 ft | 120 kts | 273° |
| 2026-05-08 18:43 | 61.38155 | 62.52147 | 9995 ft | 121 kts | 273° |
| 2026-05-08 18:44 | 61.38288 | 62.50416 | 9996 ft | 121 kts | 273° |
| 2026-05-08 18:44 | 61.38421 | 62.48688 | 9993 ft | 120 kts | 273° |
| 2026-05-08 18:44 | 61.38555 | 62.46970 | 9993 ft | 120 kts | 273° |
| 2026-05-08 18:44 | 61.38683 | 62.45260 | 9996 ft | 119 kts | 272° |
| 2026-05-08 18:45 | 61.38811 | 62.43559 | 9995 ft | 119 kts | 273° |
| 2026-05-08 18:45 | 61.38940 | 62.41859 | 9996 ft | 119 kts | 272° |
| 2026-05-08 18:45 | 61.39070 | 62.40168 | 9992 ft | 118 kts | 272° |
| 2026-05-08 18:45 | 61.39199 | 62.38476 | 9993 ft | 118 kts | 273° |
| 2026-05-08 18:46 | 61.39327 | 62.36799 | 9993 ft | 117 kts | 273° |
| 2026-05-08 18:46 | 61.39454 | 62.35124 | 9994 ft | 117 kts | 273° |
| 2026-05-08 18:46 | 61.39580 | 62.33452 | 9989 ft | 117 kts | 273° |
| 2026-05-08 18:46 | 61.39706 | 62.31786 | 9992 ft | 116 kts | 272° |
| 2026-05-08 18:47 | 61.39831 | 62.30112 | 9984 ft | 117 kts | 274° |
| 2026-05-08 18:47 | 61.39958 | 62.28432 | 9985 ft | 118 kts | 274° |
| 2026-05-08 18:47 | 61.40085 | 62.26747 | 9992 ft | 118 kts | 274° |
| 2026-05-08 18:47 | 61.40211 | 62.25061 | 9992 ft | 118 kts | 274° |
| 2026-05-08 18:48 | 61.40337 | 62.23378 | 9989 ft | 118 kts | 273° |
| 2026-05-08 18:48 | 61.40463 | 62.21695 | 9994 ft | 117 kts | 273° |
| 2026-05-08 18:48 | 61.40588 | 62.20015 | 9987 ft | 118 kts | 273° |
| 2026-05-08 18:48 | 61.40714 | 62.18335 | 9989 ft | 117 kts | 273° |
| 2026-05-08 18:49 | 61.40838 | 62.16661 | 9993 ft | 117 kts | 273° |
| 2026-05-08 18:49 | 61.40962 | 62.14987 | 9990 ft | 117 kts | 273° |
| 2026-05-08 18:49 | 61.41086 | 62.13315 | 9989 ft | 117 kts | 274° |
| 2026-05-08 18:49 | 61.41209 | 62.11647 | 9987 ft | 116 kts | 274° |
| 2026-05-08 18:50 | 61.41332 | 62.09987 | 9986 ft | 116 kts | 273° |
| 2026-05-08 18:50 | 61.41454 | 62.08334 | 9987 ft | 115 kts | 273° |
| 2026-05-08 18:50 | 61.41575 | 62.06684 | 9989 ft | 116 kts | 273° |
| 2026-05-08 18:50 | 61.41696 | 62.05024 | 9987 ft | 116 kts | 273° |
| 2026-05-08 18:51 | 61.41818 | 62.03365 | 9990 ft | 116 kts | 273° |
| 2026-05-08 18:51 | 61.41940 | 62.01702 | 9987 ft | 116 kts | 273° |
| 2026-05-08 18:51 | 61.42061 | 62.00048 | 9992 ft | 115 kts | 273° |
| 2026-05-08 18:51 | 61.42181 | 61.98400 | 9992 ft | 115 kts | 273° |
| 2026-05-08 18:52 | 61.42301 | 61.96756 | 9993 ft | 114 kts | 273° |
| 2026-05-08 18:52 | 61.42419 | 61.95128 | 9980 ft | 114 kts | 273° |
| 2026-05-08 18:52 | 61.42537 | 61.93499 | 9979 ft | 113 kts | 273° |
| 2026-05-08 18:52 | 61.42654 | 61.91884 | 9976 ft | 113 kts | 273° |
| 2026-05-08 18:53 | 61.42770 | 61.90275 | 9979 ft | 112 kts | 273° |
| 2026-05-08 18:53 | 61.42886 | 61.88677 | 9984 ft | 111 kts | 273° |
| 2026-05-08 18:53 | 61.43000 | 61.87090 | 9984 ft | 110 kts | 273° |
| 2026-05-08 18:53 | 61.43114 | 61.85504 | 9978 ft | 110 kts | 273° |
| 2026-05-08 18:54 | 61.43227 | 61.83922 | 9979 ft | 110 kts | 273° |
| 2026-05-08 18:54 | 61.43340 | 61.82330 | 9977 ft | 112 kts | 273° |
| 2026-05-08 18:54 | 61.43456 | 61.80719 | 9979 ft | 112 kts | 273° |
| 2026-05-08 18:54 | 61.43572 | 61.79110 | 9979 ft | 112 kts | 273° |
| 2026-05-08 18:55 | 61.43801 | 61.75886 | 9976 ft | 112 kts | 273° |
| 2026-05-08 18:55 | 61.43916 | 61.74275 | 9979 ft | 112 kts | 273° |
| 2026-05-08 18:55 | 61.44030 | 61.72667 | 9985 ft | 112 kts | 273° |
| 2026-05-08 18:56 | 61.44143 | 61.71071 | 9980 ft | 111 kts | 273° |
| 2026-05-08 18:56 | 61.44256 | 61.69471 | 9981 ft | 111 kts | 273° |
| 2026-05-08 18:56 | 61.44368 | 61.67883 | 9979 ft | 111 kts | 273° |
| 2026-05-08 18:56 | 61.44480 | 61.66300 | 9977 ft | 110 kts | 273° |
| 2026-05-08 18:57 | 61.44591 | 61.64725 | 9982 ft | 110 kts | 273° |
| 2026-05-08 18:57 | 61.44701 | 61.63160 | 9979 ft | 109 kts | 273° |
| 2026-05-08 18:57 | 61.44810 | 61.61599 | 9981 ft | 108 kts | 273° |
| 2026-05-08 18:57 | 61.44919 | 61.60049 | 9985 ft | 108 kts | 273° |
| 2026-05-08 18:58 | 61.45027 | 61.58494 | 9972 ft | 108 kts | 273° |
| 2026-05-08 18:58 | 61.45135 | 61.56946 | 9977 ft | 108 kts | 273° |
| 2026-05-08 18:58 | 61.45242 | 61.55405 | 9974 ft | 107 kts | 273° |
| 2026-05-08 18:58 | 61.45349 | 61.53877 | 9978 ft | 106 kts | 273° |
| 2026-05-08 18:59 | 61.45453 | 61.52366 | 9981 ft | 105 kts | 273° |
| 2026-05-08 18:59 | 61.45557 | 61.50869 | 9985 ft | 104 kts | 273° |
| 2026-05-08 18:59 | 61.45660 | 61.49374 | 9981 ft | 104 kts | 273° |
| 2026-05-08 18:59 | 61.45760 | 61.47948 | 10130 ft | 96 kts | 272° |
| 2026-05-08 19:00 | 61.45863 | 61.46430 | 10004 ft | 113 kts | 273° |
| 2026-05-08 19:00 | 61.45978 | 61.44774 | 9983 ft | 117 kts | 273° |
| 2026-05-08 19:00 | 61.46095 | 61.43079 | 9988 ft | 119 kts | 273° |
| 2026-05-08 19:00 | 61.46212 | 61.41355 | 9985 ft | 121 kts | 273° |
| 2026-05-08 19:01 | 61.46332 | 61.39606 | 9985 ft | 122 kts | 273° |
| 2026-05-08 19:01 | 61.46452 | 61.37843 | 9979 ft | 123 kts | 273° |
| 2026-05-08 19:01 | 61.46574 | 61.36067 | 9984 ft | 124 kts | 273° |
| 2026-05-08 19:01 | 61.46695 | 61.34283 | 9984 ft | 124 kts | 273° |
| 2026-05-08 19:02 | 61.46817 | 61.32493 | 9990 ft | 125 kts | 273° |
| 2026-05-08 19:02 | 61.46939 | 61.30691 | 9982 ft | 125 kts | 273° |
| 2026-05-08 19:02 | 61.47061 | 61.28893 | 9987 ft | 125 kts | 273° |
| 2026-05-08 19:02 | 61.47182 | 61.27100 | 9986 ft | 125 kts | 273° |
| 2026-05-08 19:03 | 61.47302 | 61.25307 | 9977 ft | 125 kts | 273° |
| 2026-05-08 19:03 | 61.47423 | 61.23511 | 9978 ft | 125 kts | 273° |
| 2026-05-08 19:03 | 61.47543 | 61.21717 | 9981 ft | 125 kts | 273° |
| 2026-05-08 19:03 | 61.47663 | 61.19922 | 9985 ft | 125 kts | 273° |
| 2026-05-08 19:04 | 61.47783 | 61.18130 | 9984 ft | 125 kts | 273° |
| 2026-05-08 19:04 | 61.47903 | 61.16340 | 9979 ft | 124 kts | 273° |
| 2026-05-08 19:04 | 61.48023 | 61.14558 | 9984 ft | 124 kts | 273° |
| 2026-05-08 19:04 | 61.48142 | 61.12785 | 9981 ft | 124 kts | 273° |
| 2026-05-08 19:05 | 61.48261 | 61.11004 | 9985 ft | 124 kts | 273° |
| 2026-05-08 19:05 | 61.48380 | 61.09225 | 9985 ft | 123 kts | 273° |
| 2026-05-08 19:05 | 61.48498 | 61.07450 | 9979 ft | 123 kts | 273° |
| 2026-05-08 19:05 | 61.48616 | 61.05683 | 9983 ft | 122 kts | 273° |
| 2026-05-08 19:06 | 61.48733 | 61.03926 | 9979 ft | 122 kts | 273° |
| 2026-05-08 19:06 | 61.48849 | 61.02168 | 9978 ft | 122 kts | 273° |
| 2026-05-08 19:06 | 61.48965 | 61.00416 | 9979 ft | 122 kts | 273° |
| 2026-05-08 19:06 | 61.49081 | 60.98663 | 9980 ft | 122 kts | 273° |
| 2026-05-08 19:07 | 61.49196 | 60.96914 | 9980 ft | 121 kts | 273° |
| 2026-05-08 19:07 | 61.49311 | 60.95163 | 9980 ft | 122 kts | 273° |
| 2026-05-08 19:07 | 61.49426 | 60.93415 | 9981 ft | 121 kts | 273° |
| 2026-05-08 19:07 | 61.49540 | 60.91670 | 9986 ft | 121 kts | 273° |
| 2026-05-08 19:08 | 61.49654 | 60.89929 | 9981 ft | 121 kts | 272° |
| 2026-05-08 19:08 | 61.49768 | 60.88180 | 9980 ft | 121 kts | 272° |
| 2026-05-08 19:08 | 61.49881 | 60.86438 | 9981 ft | 121 kts | 272° |
| 2026-05-08 19:08 | 61.49994 | 60.84703 | 9976 ft | 120 kts | 272° |
| 2026-05-08 19:09 | 61.50106 | 60.82985 | 9990 ft | 119 kts | 272° |
| 2026-05-08 19:09 | 61.50217 | 60.81269 | 9978 ft | 119 kts | 272° |
| 2026-05-08 19:09 | 61.50327 | 60.79558 | 9981 ft | 118 kts | 272° |
| 2026-05-08 19:09 | 61.50437 | 60.77853 | 9979 ft | 118 kts | 272° |
| 2026-05-08 19:10 | 61.50546 | 60.76154 | 9981 ft | 118 kts | 272° |
| 2026-05-08 19:10 | 61.50655 | 60.74464 | 9976 ft | 117 kts | 272° |
| 2026-05-08 19:10 | 61.50763 | 60.72779 | 9983 ft | 117 kts | 272° |
| 2026-05-08 19:10 | 61.50870 | 60.71102 | 9983 ft | 116 kts | 272° |
| 2026-05-08 19:11 | 61.50977 | 60.69422 | 9978 ft | 118 kts | 273° |
| 2026-05-08 19:11 | 61.51086 | 60.67716 | 9979 ft | 118 kts | 273° |
| 2026-05-08 19:11 | 61.51194 | 60.66010 | 9981 ft | 118 kts | 272° |
| 2026-05-08 19:11 | 61.51302 | 60.64302 | 9983 ft | 119 kts | 273° |
| 2026-05-08 19:12 | 61.51411 | 60.62590 | 9981 ft | 119 kts | 273° |
| 2026-05-08 19:12 | 61.51519 | 60.60881 | 9978 ft | 119 kts | 273° |
| 2026-05-08 19:12 | 61.51627 | 60.59166 | 9977 ft | 119 kts | 272° |
| 2026-05-08 19:12 | 61.51734 | 60.57463 | 9978 ft | 118 kts | 272° |
| 2026-05-08 19:13 | 61.51840 | 60.55778 | 9978 ft | 117 kts | 272° |
| 2026-05-08 19:13 | 61.51945 | 60.54101 | 9974 ft | 117 kts | 272° |
| 2026-05-08 19:13 | 61.52050 | 60.52426 | 9973 ft | 116 kts | 272° |
| 2026-05-08 19:13 | 61.52154 | 60.50756 | 9970 ft | 116 kts | 272° |
| 2026-05-08 19:14 | 61.52257 | 60.49104 | 9973 ft | 114 kts | 272° |
| 2026-05-08 19:14 | 61.52359 | 60.47476 | 10055 ft | 106 kts | 271° |
| 2026-05-08 19:14 | 61.52449 | 60.46036 | 10185 ft | 107 kts | 270° |
| 2026-05-08 19:14 | 61.52549 | 60.44364 | 10077 ft | 124 kts | 272° |
| 2026-05-08 19:15 | 61.52665 | 60.42497 | 9989 ft | 133 kts | 272° |
| 2026-05-08 19:15 | 61.52785 | 60.40585 | 9991 ft | 133 kts | 272° |
| 2026-05-08 19:15 | 61.52904 | 60.38658 | 9988 ft | 134 kts | 272° |
| 2026-05-08 19:15 | 61.53023 | 60.36716 | 9985 ft | 135 kts | 272° |
| 2026-05-08 19:16 | 61.53142 | 60.34768 | 9983 ft | 135 kts | 272° |
| 2026-05-08 19:16 | 61.53261 | 60.32815 | 9982 ft | 135 kts | 272° |
| 2026-05-08 19:16 | 61.53380 | 60.30859 | 9978 ft | 136 kts | 272° |
| 2026-05-08 19:16 | 61.53499 | 60.28902 | 9979 ft | 136 kts | 272° |
| 2026-05-08 19:17 | 61.53618 | 60.26942 | 9979 ft | 136 kts | 272° |
| 2026-05-08 19:17 | 61.53737 | 60.24976 | 9978 ft | 136 kts | 272° |
| 2026-05-08 19:17 | 61.53855 | 60.23009 | 9978 ft | 137 kts | 272° |
| 2026-05-08 19:17 | 61.53974 | 60.21031 | 9975 ft | 137 kts | 272° |
| 2026-05-08 19:18 | 61.54093 | 60.19050 | 9976 ft | 138 kts | 272° |
| 2026-05-08 19:18 | 61.54212 | 60.17065 | 9976 ft | 137 kts | 272° |
| 2026-05-08 19:18 | 61.54331 | 60.15080 | 9976 ft | 138 kts | 272° |
| 2026-05-08 19:18 | 61.54449 | 60.13092 | 9980 ft | 137 kts | 272° |
| 2026-05-08 19:19 | 61.54567 | 60.11113 | 9984 ft | 137 kts | 272° |
| 2026-05-08 19:19 | 61.54684 | 60.09130 | 9984 ft | 138 kts | 272° |
| 2026-05-08 19:19 | 61.54802 | 60.07143 | 9985 ft | 138 kts | 272° |
| 2026-05-08 19:19 | 61.54919 | 60.05148 | 9978 ft | 138 kts | 272° |
| 2026-05-08 19:20 | 61.55037 | 60.03156 | 9982 ft | 138 kts | 272° |
| 2026-05-08 19:20 | 61.55115 | 60.01831 | 9989 ft | 138 kts | 272° |
| 2026-05-08 19:20 | 61.55269 | 59.99190 | 9995 ft | 137 kts | 272° |
| 2026-05-08 19:20 | 61.55385 | 59.97217 | 9992 ft | 137 kts | 272° |
| 2026-05-08 19:21 | 61.55501 | 59.95251 | 9985 ft | 136 kts | 272° |
| 2026-05-08 19:21 | 61.55615 | 59.93297 | 9989 ft | 135 kts | 272° |
| 2026-05-08 19:21 | 61.55729 | 59.91353 | 9989 ft | 135 kts | 272° |
| 2026-05-08 19:21 | 61.55842 | 59.89408 | 9991 ft | 134 kts | 272° |
| 2026-05-08 19:22 | 61.55954 | 59.87469 | 9991 ft | 134 kts | 272° |
| 2026-05-08 19:22 | 61.56067 | 59.85533 | 9987 ft | 134 kts | 272° |
| 2026-05-08 19:22 | 61.56178 | 59.83602 | 9985 ft | 133 kts | 272° |
| 2026-05-08 19:22 | 61.56289 | 59.81695 | 9992 ft | 132 kts | 271° |
| 2026-05-08 19:23 | 61.56398 | 59.79778 | 9983 ft | 134 kts | 271° |
| 2026-05-08 19:23 | 61.56509 | 59.77835 | 9978 ft | 135 kts | 272° |
| 2026-05-08 19:23 | 61.56622 | 59.75883 | 9980 ft | 135 kts | 271° |
| 2026-05-08 19:23 | 61.56732 | 59.73947 | 9985 ft | 133 kts | 271° |
| 2026-05-08 19:24 | 61.56842 | 59.72030 | 9988 ft | 133 kts | 271° |
| 2026-05-08 19:24 | 61.56951 | 59.70111 | 9986 ft | 133 kts | 271° |
| 2026-05-08 19:24 | 61.57060 | 59.68194 | 9989 ft | 133 kts | 271° |
| 2026-05-08 19:24 | 61.57169 | 59.66274 | 9992 ft | 133 kts | 271° |
| 2026-05-08 19:25 | 61.57278 | 59.64344 | 9987 ft | 134 kts | 271° |
| 2026-05-08 19:25 | 61.57386 | 59.62414 | 9986 ft | 134 kts | 271° |
| 2026-05-08 19:25 | 61.57495 | 59.60480 | 9982 ft | 134 kts | 272° |
| 2026-05-08 19:25 | 61.57603 | 59.58547 | 9985 ft | 133 kts | 271° |
| 2026-05-08 19:26 | 61.57711 | 59.56619 | 9993 ft | 133 kts | 271° |
| 2026-05-08 19:26 | 61.57819 | 59.54682 | 9998 ft | 134 kts | 272° |
| 2026-05-08 19:26 | 61.57927 | 59.52737 | 9995 ft | 134 kts | 271° |
| 2026-05-08 19:26 | 61.58034 | 59.50795 | 9996 ft | 132 kts | 256° |
| 2026-05-08 19:27 | 61.58142 | 59.48936 | 9988 ft | 124 kts | 310° |
| 2026-05-08 19:27 | 61.58307 | 59.49848 | 9481 ft | 132 kts | 101° |
| 2026-05-08 19:27 | 61.58269 | 59.51955 | 9250 ft | 151 kts | 101° |
| 2026-05-08 19:27 | 61.58168 | 59.54132 | 9272 ft | 148 kts | 105° |
| 2026-05-08 19:28 | 61.57823 | 59.56013 | 9328 ft | 135 kts | 140° |
| 2026-05-08 19:28 | 61.57034 | 59.56733 | 9399 ft | 123 kts | 186° |
| 2026-05-08 19:28 | 61.56222 | 59.56262 | 9445 ft | 122 kts | 207° |
| 2026-05-08 19:28 | 61.55541 | 59.55220 | 9520 ft | 122 kts | 226° |
| 2026-05-08 19:29 | 61.55122 | 59.53694 | 9572 ft | 123 kts | 251° |
| 2026-05-08 19:29 | 61.55094 | 59.51879 | 9635 ft | 128 kts | 275° |
| 2026-05-08 19:29 | 61.55290 | 59.50038 | 9666 ft | 130 kts | 277° |
| 2026-05-08 19:29 | 61.55474 | 59.48195 | 9718 ft | 129 kts | 275° |
| 2026-05-08 19:30 | 61.55638 | 59.46347 | 9782 ft | 129 kts | 274° |
| 2026-05-08 19:30 | 61.55792 | 59.44535 | 9879 ft | 125 kts | 271° |
| 2026-05-08 19:30 | 61.55937 | 59.42770 | 9945 ft | 122 kts | 270° |
| 2026-05-08 19:30 | 61.56080 | 59.41009 | 9958 ft | 123 kts | 270° |
| 2026-05-08 19:31 | 61.56221 | 59.39241 | 9999 ft | 125 kts | 270° |
| 2026-05-08 19:31 | 61.56369 | 59.37419 | 10009 ft | 128 kts | 271° |
| 2026-05-08 19:31 | 61.56521 | 59.35552 | 9996 ft | 131 kts | 271° |
| 2026-05-08 19:31 | 61.56674 | 59.33661 | 9994 ft | 132 kts | 271° |
| 2026-05-08 19:32 | 61.56826 | 59.31775 | 9991 ft | 130 kts | 270° |
| 2026-05-08 19:32 | 61.56975 | 59.29925 | 10003 ft | 129 kts | 270° |
| 2026-05-08 19:32 | 61.57123 | 59.28066 | 9998 ft | 130 kts | 270° |
| 2026-05-08 19:32 | 61.57273 | 59.26194 | 10003 ft | 130 kts | 270° |
| 2026-05-08 19:33 | 61.57423 | 59.24314 | 10005 ft | 131 kts | 270° |
| 2026-05-08 19:33 | 61.57573 | 59.22437 | 10008 ft | 131 kts | 270° |
| 2026-05-08 19:33 | 61.57722 | 59.20559 | 10005 ft | 131 kts | 270° |
| 2026-05-08 19:33 | 61.57871 | 59.18694 | 10003 ft | 129 kts | 270° |
| 2026-05-08 19:34 | 61.58016 | 59.16858 | 9985 ft | 127 kts | 270° |
| 2026-05-08 19:34 | 61.58161 | 59.15033 | 9987 ft | 127 kts | 270° |
| 2026-05-08 19:34 | 61.58305 | 59.13190 | 9985 ft | 129 kts | 270° |
| 2026-05-08 19:34 | 61.58453 | 59.11317 | 9983 ft | 131 kts | 270° |
| 2026-05-08 19:35 | 61.58602 | 59.09424 | 9971 ft | 133 kts | 270° |
| 2026-05-08 19:35 | 61.58753 | 59.07522 | 9969 ft | 132 kts | 270° |
| 2026-05-08 19:35 | 61.58901 | 59.05639 | 9975 ft | 131 kts | 270° |
| 2026-05-08 19:35 | 61.59048 | 59.03746 | 9975 ft | 132 kts | 270° |
| 2026-05-08 19:36 | 61.59197 | 59.01841 | 9970 ft | 133 kts | 270° |
| 2026-05-08 19:36 | 61.59346 | 58.99932 | 9973 ft | 132 kts | 270° |
| 2026-05-08 19:36 | 61.59494 | 58.98036 | 9972 ft | 131 kts | 270° |
| 2026-05-08 19:36 | 61.59640 | 58.96168 | 9976 ft | 129 kts | 270° |
| 2026-05-08 19:37 | 61.59783 | 58.94325 | 9979 ft | 128 kts | 270° |
| 2026-05-08 19:37 | 61.59924 | 58.92498 | 9978 ft | 127 kts | 270° |
| 2026-05-08 19:37 | 61.60065 | 58.90672 | 9981 ft | 127 kts | 270° |
| 2026-05-08 19:37 | 61.60205 | 58.88856 | 9985 ft | 126 kts | 270° |
| 2026-05-08 19:38 | 61.60344 | 58.87031 | 9975 ft | 127 kts | 270° |
| 2026-05-08 19:38 | 61.60487 | 58.85196 | 9948 ft | 134 kts | 279° |
| 2026-05-08 19:38 | 61.60118 | 58.83602 | 10102 ft | 118 kts | 256° |
| 2026-05-08 19:38 | 61.60051 | 58.81963 | 10283 ft | 114 kts | 272° |
| 2026-05-08 19:39 | 61.60416 | 58.80328 | 10148 ft | 135 kts | 294° |
| 2026-05-08 19:39 | 61.60913 | 58.78516 | 9946 ft | 149 kts | 292° |
| 2026-05-08 19:39 | 61.61234 | 58.76533 | 9939 ft | 142 kts | 274° |
| 2026-05-08 19:39 | 61.61373 | 58.74537 | 9958 ft | 139 kts | 271° |
| 2026-05-08 19:40 | 61.61483 | 58.72538 | 9979 ft | 137 kts | 271° |
| 2026-05-08 19:40 | 61.61610 | 58.70528 | 9945 ft | 139 kts | 273° |
| 2026-05-08 19:40 | 61.61756 | 58.68533 | 9946 ft | 138 kts | 274° |
| 2026-05-08 19:40 | 61.61906 | 58.66549 | 9946 ft | 138 kts | 274° |
| 2026-05-08 19:41 | 61.62056 | 58.64574 | 9953 ft | 137 kts | 274° |
| 2026-05-08 19:41 | 61.62204 | 58.62607 | 9955 ft | 136 kts | 274° |
| 2026-05-08 19:41 | 61.62350 | 58.60643 | 9955 ft | 137 kts | 274° |
| 2026-05-08 19:41 | 61.62497 | 58.58675 | 9957 ft | 136 kts | 274° |
| 2026-05-08 19:42 | 61.62643 | 58.56715 | 9957 ft | 136 kts | 274° |
| 2026-05-08 19:42 | 61.62789 | 58.54755 | 9957 ft | 136 kts | 274° |
| 2026-05-08 19:42 | 61.62936 | 58.52791 | 9958 ft | 136 kts | 274° |
| 2026-05-08 19:42 | 61.63083 | 58.50816 | 9951 ft | 137 kts | 274° |
| 2026-05-08 19:43 | 61.63229 | 58.48844 | 9954 ft | 137 kts | 274° |
| 2026-05-08 19:43 | 61.63375 | 58.46871 | 9954 ft | 137 kts | 274° |
| 2026-05-08 19:43 | 61.63478 | 58.44897 | 9953 ft | 136 kts | 271° |
| 2026-05-08 19:43 | 61.63592 | 58.42924 | 9955 ft | 136 kts | 272° |
| 2026-05-08 19:44 | 61.63702 | 58.40954 | 9944 ft | 136 kts | 271° |
| 2026-05-08 19:44 | 61.63810 | 58.38990 | 9948 ft | 136 kts | 271° |
| 2026-05-08 19:44 | 61.63918 | 58.37016 | 9942 ft | 137 kts | 271° |
| 2026-05-08 19:44 | 61.64025 | 58.35035 | 9944 ft | 137 kts | 271° |
| 2026-05-08 19:45 | 61.64133 | 58.33040 | 9936 ft | 137 kts | 271° |
| 2026-05-08 19:45 | 61.64240 | 58.31061 | 9942 ft | 136 kts | 271° |
| 2026-05-08 19:45 | 61.64345 | 58.29086 | 9941 ft | 136 kts | 271° |
| 2026-05-08 19:45 | 61.64451 | 58.27116 | 9941 ft | 136 kts | 271° |
| 2026-05-08 19:46 | 61.64557 | 58.25146 | 9941 ft | 136 kts | 271° |
| 2026-05-08 19:46 | 61.64662 | 58.23180 | 9937 ft | 136 kts | 271° |
| 2026-05-08 19:46 | 61.64872 | 58.19255 | 9947 ft | 135 kts | 271° |
| 2026-05-08 19:47 | 61.64976 | 58.17291 | 9943 ft | 135 kts | 271° |
| 2026-05-08 19:47 | 61.65079 | 58.15338 | 9953 ft | 134 kts | 271° |
| 2026-05-08 19:47 | 61.65182 | 58.13389 | 9963 ft | 133 kts | 271° |
| 2026-05-08 19:47 | 61.65284 | 58.11446 | 9955 ft | 134 kts | 271° |
| 2026-05-08 19:48 | 61.65386 | 58.09497 | 9960 ft | 135 kts | 271° |
| 2026-05-08 19:48 | 61.65489 | 58.07533 | 9960 ft | 136 kts | 271° |
| 2026-05-08 19:48 | 61.65592 | 58.05563 | 9951 ft | 136 kts | 271° |
| 2026-05-08 19:48 | 61.65695 | 58.03587 | 9951 ft | 136 kts | 271° |
| 2026-05-08 19:49 | 61.65797 | 58.01611 | 9951 ft | 136 kts | 271° |
| 2026-05-08 19:49 | 61.65899 | 57.99637 | 9952 ft | 136 kts | 271° |
| 2026-05-08 19:49 | 61.66002 | 57.97656 | 9952 ft | 137 kts | 271° |
| 2026-05-08 19:49 | 61.66103 | 57.95670 | 9951 ft | 137 kts | 271° |
| 2026-05-08 19:50 | 61.66205 | 57.93683 | 9950 ft | 137 kts | 271° |
| 2026-05-08 19:50 | 61.66306 | 57.91698 | 9947 ft | 137 kts | 271° |
| 2026-05-08 19:50 | 61.66407 | 57.89717 | 9947 ft | 136 kts | 271° |
| 2026-05-08 19:50 | 61.66507 | 57.87756 | 9950 ft | 134 kts | 270° |
| 2026-05-08 19:51 | 61.66605 | 57.85826 | 9946 ft | 132 kts | 270° |
| 2026-05-08 19:51 | 61.66702 | 57.83916 | 9946 ft | 131 kts | 270° |
| 2026-05-08 19:51 | 61.66797 | 57.82027 | 9945 ft | 130 kts | 270° |
| 2026-05-08 19:51 | 61.66891 | 57.80151 | 9952 ft | 129 kts | 270° |
| 2026-05-08 19:52 | 61.66985 | 57.78271 | 9955 ft | 129 kts | 270° |
| 2026-05-08 19:52 | 61.67078 | 57.76397 | 9955 ft | 129 kts | 270° |
| 2026-05-08 19:52 | 61.67172 | 57.74517 | 9956 ft | 130 kts | 270° |
| 2026-05-08 19:52 | 61.67266 | 57.72629 | 9957 ft | 130 kts | 270° |
| 2026-05-08 19:53 | 61.67358 | 57.70736 | 9957 ft | 131 kts | 270° |
| 2026-05-08 19:53 | 61.67453 | 57.68832 | 9950 ft | 131 kts | 270° |
| 2026-05-08 19:53 | 61.67796 | 57.67016 | 9949 ft | 140 kts | 297° |
| 2026-05-08 19:53 | 61.68387 | 57.65373 | 9951 ft | 141 kts | 300° |
| 2026-05-08 19:54 | 61.68990 | 57.63747 | 9945 ft | 142 kts | 300° |
| 2026-05-08 19:54 | 61.69592 | 57.62114 | 9946 ft | 142 kts | 300° |
| 2026-05-08 19:54 | 61.70195 | 57.60471 | 9942 ft | 143 kts | 300° |
| 2026-05-08 19:54 | 61.70801 | 57.58815 | 9941 ft | 143 kts | 300° |
| 2026-05-08 19:55 | 61.71406 | 57.57162 | 9939 ft | 143 kts | 300° |
| 2026-05-08 19:55 | 61.72011 | 57.55506 | 9939 ft | 143 kts | 300° |
| 2026-05-08 19:55 | 61.72615 | 57.53854 | 9940 ft | 142 kts | 300° |
| 2026-05-08 19:55 | 61.73219 | 57.52201 | 9940 ft | 143 kts | 300° |
| 2026-05-08 19:56 | 61.73825 | 57.50544 | 9942 ft | 143 kts | 300° |
| 2026-05-08 19:56 | 61.74432 | 57.48876 | 9957 ft | 144 kts | 301° |
| 2026-05-08 19:56 | 61.75043 | 57.47200 | 9957 ft | 145 kts | 301° |
| 2026-05-08 19:56 | 61.75654 | 57.45518 | 9953 ft | 145 kts | 301° |
| 2026-05-08 19:57 | 61.76268 | 57.43825 | 9961 ft | 145 kts | 301° |
| 2026-05-08 19:57 | 61.76880 | 57.42141 | 9961 ft | 145 kts | 301° |
| 2026-05-08 19:57 | 61.77492 | 57.40456 | 9958 ft | 145 kts | 301° |
| 2026-05-08 19:57 | 61.78102 | 57.38774 | 9957 ft | 145 kts | 301° |
| 2026-05-08 19:58 | 61.78712 | 57.37091 | 9951 ft | 145 kts | 301° |
| 2026-05-08 19:58 | 61.79322 | 57.35407 | 9951 ft | 145 kts | 301° |
| 2026-05-08 19:58 | 61.79932 | 57.33722 | 9952 ft | 145 kts | 301° |
| 2026-05-08 19:58 | 61.80541 | 57.32034 | 9953 ft | 145 kts | 301° |
| 2026-05-08 19:59 | 61.81152 | 57.30345 | 9950 ft | 145 kts | 301° |
| 2026-05-08 19:59 | 61.81764 | 57.28651 | 9950 ft | 145 kts | 301° |
| 2026-05-08 19:59 | 61.82373 | 57.26966 | 9958 ft | 144 kts | 301° |
| 2026-05-08 19:59 | 61.82981 | 57.25280 | 9958 ft | 144 kts | 301° |
| 2026-05-08 20:00 | 61.83589 | 57.23592 | 9958 ft | 145 kts | 301° |
| 2026-05-08 20:00 | 61.84198 | 57.21898 | 9958 ft | 145 kts | 301° |
| 2026-05-08 20:00 | 61.84810 | 57.20199 | 9958 ft | 145 kts | 301° |
| 2026-05-08 20:00 | 61.85422 | 57.18496 | 9959 ft | 146 kts | 301° |
| 2026-05-08 20:01 | 61.86033 | 57.16798 | 9958 ft | 145 kts | 301° |
| 2026-05-08 20:01 | 61.86643 | 57.15100 | 9962 ft | 145 kts | 301° |
| 2026-05-08 20:01 | 61.87252 | 57.13400 | 9962 ft | 145 kts | 301° |
| 2026-05-08 20:01 | 61.87864 | 57.11694 | 9962 ft | 146 kts | 301° |
| 2026-05-08 20:02 | 61.88475 | 57.09987 | 9960 ft | 146 kts | 301° |
| 2026-05-08 20:02 | 61.89089 | 57.08271 | 9960 ft | 146 kts | 301° |
| 2026-05-08 20:02 | 61.89704 | 57.06554 | 9960 ft | 146 kts | 301° |
| 2026-05-08 20:02 | 61.90317 | 57.04840 | 9973 ft | 146 kts | 301° |
| 2026-05-08 20:03 | 61.90929 | 57.03126 | 9974 ft | 146 kts | 301° |
| 2026-05-08 20:03 | 61.91540 | 57.01415 | 9974 ft | 146 kts | 301° |
| 2026-05-08 20:03 | 61.92151 | 56.99701 | 9973 ft | 146 kts | 301° |
| 2026-05-08 20:03 | 61.92760 | 56.97991 | 9973 ft | 145 kts | 301° |
| 2026-05-08 20:04 | 61.93367 | 56.96287 | 9961 ft | 145 kts | 301° |
| 2026-05-08 20:04 | 61.93975 | 56.94579 | 9962 ft | 145 kts | 301° |
| 2026-05-08 20:04 | 61.94584 | 56.92862 | 9966 ft | 146 kts | 303° |
| 2026-05-08 20:04 | 61.95197 | 56.91137 | 9969 ft | 147 kts | 304° |
| 2026-05-08 20:05 | 61.95814 | 56.89399 | 9967 ft | 148 kts | 304° |
| 2026-05-08 20:05 | 61.96432 | 56.87658 | 9967 ft | 149 kts | 304° |
| 2026-05-08 20:05 | 61.97056 | 56.85900 | 9967 ft | 150 kts | 303° |
| 2026-05-08 20:05 | 61.97679 | 56.84119 | 9951 ft | 151 kts | 303° |
| 2026-05-08 20:06 | 61.98316 | 56.82346 | 9957 ft | 151 kts | 302° |
| 2026-05-08 20:06 | 61.98951 | 56.80557 | 9965 ft | 152 kts | 302° |
| 2026-05-08 20:06 | 61.99584 | 56.78760 | 9965 ft | 152 kts | 302° |
| 2026-05-08 20:06 | 62.00221 | 56.76954 | 9962 ft | 153 kts | 302° |
| 2026-05-08 20:07 | 62.00864 | 56.75144 | 9965 ft | 153 kts | 303° |
| 2026-05-08 20:07 | 62.01496 | 56.73332 | 9963 ft | 153 kts | 303° |
| 2026-05-08 20:07 | 62.02131 | 56.71523 | 9963 ft | 153 kts | 303° |
| 2026-05-08 20:07 | 62.02768 | 56.69715 | 9964 ft | 153 kts | 303° |
| 2026-05-08 20:08 | 62.03409 | 56.67896 | 9965 ft | 154 kts | 303° |
| 2026-05-08 20:08 | 62.04049 | 56.66077 | 9973 ft | 154 kts | 303° |
| 2026-05-08 20:08 | 62.04690 | 56.64252 | 9968 ft | 154 kts | 303° |
| 2026-05-08 20:08 | 62.05331 | 56.62425 | 9964 ft | 154 kts | 303° |
| 2026-05-08 20:09 | 62.05970 | 56.60592 | 9967 ft | 153 kts | 306° |
| 2026-05-08 20:09 | 62.06611 | 56.58780 | 9970 ft | 154 kts | 302° |
| 2026-05-08 20:09 | 62.07252 | 56.56946 | 9970 ft | 155 kts | 301° |
| 2026-05-08 20:09 | 62.07893 | 56.55107 | 9971 ft | 156 kts | 301° |
| 2026-05-08 20:10 | 62.08541 | 56.53253 | 9970 ft | 156 kts | 301° |
| 2026-05-08 20:10 | 62.09190 | 56.51395 | 9971 ft | 156 kts | 301° |
| 2026-05-08 20:10 | 62.09838 | 56.49537 | 9971 ft | 156 kts | 301° |
| 2026-05-08 20:10 | 62.10485 | 56.47683 | 9969 ft | 156 kts | 301° |
| 2026-05-08 20:11 | 62.11129 | 56.45833 | 9970 ft | 155 kts | 301° |
| 2026-05-08 20:11 | 62.11770 | 56.43992 | 9972 ft | 155 kts | 301° |
| 2026-05-08 20:11 | 62.12414 | 56.42141 | 9967 ft | 156 kts | 301° |
| 2026-05-08 20:11 | 62.13058 | 56.40286 | 9967 ft | 156 kts | 301° |
| 2026-05-08 20:12 | 62.13704 | 56.38427 | 9963 ft | 156 kts | 301° |
| 2026-05-08 20:12 | 62.14351 | 56.36563 | 9966 ft | 156 kts | 301° |
| 2026-05-08 20:12 | 62.14997 | 56.34695 | 9983 ft | 157 kts | 306° |
| 2026-05-08 20:12 | 62.15649 | 56.32819 | 9982 ft | 158 kts | 306° |
| 2026-05-08 20:13 | 62.16305 | 56.30925 | 9976 ft | 159 kts | 306° |
| 2026-05-08 20:13 | 62.16963 | 56.29021 | 9978 ft | 159 kts | 306° |
| 2026-05-08 20:13 | 62.17620 | 56.27120 | 9979 ft | 160 kts | 306° |
| 2026-05-08 20:13 | 62.18279 | 56.25210 | 9979 ft | 160 kts | 306° |
| 2026-05-08 20:14 | 62.18940 | 56.23295 | 9982 ft | 160 kts | 306° |
| 2026-05-08 20:14 | 62.19599 | 56.21379 | 9984 ft | 160 kts | 306° |
| 2026-05-08 20:14 | 62.20261 | 56.19458 | 9985 ft | 161 kts | 306° |
| 2026-05-08 20:14 | 62.20920 | 56.17529 | 9977 ft | 161 kts | 304° |
| 2026-05-08 20:15 | 62.21588 | 56.15598 | 9977 ft | 162 kts | 304° |
| 2026-05-08 20:15 | 62.22256 | 56.13660 | 9977 ft | 162 kts | 304° |
| 2026-05-08 20:15 | 62.22926 | 56.11708 | 9981 ft | 163 kts | 304° |
| 2026-05-08 20:15 | 62.23598 | 56.09746 | 9976 ft | 163 kts | 304° |
| 2026-05-08 20:16 | 62.24270 | 56.07785 | 9979 ft | 163 kts | 304° |
| 2026-05-08 20:16 | 62.24940 | 56.05828 | 9985 ft | 163 kts | 304° |
| 2026-05-08 20:16 | 62.25611 | 56.03866 | 9980 ft | 164 kts | 304° |
| 2026-05-08 20:16 | 62.26282 | 56.01900 | 9979 ft | 163 kts | 304° |
| 2026-05-08 20:17 | 62.26953 | 55.99937 | 9980 ft | 163 kts | 304° |
| 2026-05-08 20:17 | 62.27619 | 55.97983 | 9980 ft | 163 kts | 304° |
| 2026-05-08 20:17 | 62.28286 | 55.96027 | 9978 ft | 163 kts | 304° |
| 2026-05-08 20:17 | 62.28951 | 55.94075 | 9983 ft | 162 kts | 304° |
| 2026-05-08 20:18 | 62.29616 | 55.92121 | 9983 ft | 162 kts | 304° |
| 2026-05-08 20:18 | 62.30279 | 55.90169 | 9983 ft | 162 kts | 304° |
| 2026-05-08 20:18 | 62.30940 | 55.88224 | 9994 ft | 162 kts | 304° |
| 2026-05-08 20:18 | 62.31602 | 55.86275 | 9994 ft | 162 kts | 304° |
| 2026-05-08 20:19 | 62.32261 | 55.84329 | 9991 ft | 161 kts | 304° |
| 2026-05-08 20:19 | 62.32921 | 55.82381 | 9991 ft | 161 kts | 304° |
| 2026-05-08 20:19 | 62.33578 | 55.80442 | 9991 ft | 161 kts | 304° |
| 2026-05-08 20:19 | 62.34233 | 55.78504 | 9990 ft | 160 kts | 304° |
| 2026-05-08 20:20 | 62.34886 | 55.76573 | 9992 ft | 159 kts | 308° |
| 2026-05-08 20:20 | 62.35532 | 55.74659 | 9991 ft | 158 kts | 308° |
| 2026-05-08 20:20 | 62.36171 | 55.72766 | 9995 ft | 156 kts | 308° |
| 2026-05-08 20:20 | 62.36809 | 55.70873 | 9995 ft | 156 kts | 308° |
| 2026-05-08 20:21 | 62.37442 | 55.68991 | 10001 ft | 156 kts | 308° |
| 2026-05-08 20:21 | 62.38077 | 55.67104 | 10000 ft | 156 kts | 308° |
| 2026-05-08 20:21 | 62.38712 | 55.65219 | 10004 ft | 156 kts | 308° |
| 2026-05-08 20:21 | 62.39345 | 55.63336 | 10006 ft | 155 kts | 308° |
| 2026-05-08 20:22 | 62.39976 | 55.61455 | 10002 ft | 155 kts | 308° |
| 2026-05-08 20:22 | 62.40606 | 55.59577 | 10002 ft | 155 kts | 308° |
| 2026-05-08 20:22 | 62.41236 | 55.57697 | 10003 ft | 155 kts | 308° |
| 2026-05-08 20:22 | 62.41864 | 55.55821 | 10003 ft | 155 kts | 308° |
| 2026-05-08 20:23 | 62.42493 | 55.53943 | 10003 ft | 155 kts | 308° |
| 2026-05-08 20:23 | 62.43120 | 55.52065 | 10002 ft | 155 kts | 308° |
| 2026-05-08 20:23 | 62.43749 | 55.50184 | 10005 ft | 155 kts | 308° |
| 2026-05-08 20:23 | 62.44379 | 55.48295 | 10003 ft | 155 kts | 308° |
| 2026-05-08 20:24 | 62.45010 | 55.46404 | 10007 ft | 156 kts | 308° |
| 2026-05-08 20:24 | 62.45642 | 55.44507 | 10008 ft | 156 kts | 308° |
| 2026-05-08 20:24 | 62.46275 | 55.42606 | 10010 ft | 157 kts | 308° |
| 2026-05-08 20:24 | 62.46911 | 55.40693 | 10011 ft | 157 kts | 308° |
| 2026-05-08 20:25 | 62.47548 | 55.38778 | 10009 ft | 157 kts | 308° |
| 2026-05-08 20:25 | 62.48185 | 55.36862 | 10008 ft | 158 kts | 308° |
| 2026-05-08 20:25 | 62.48824 | 55.34934 | 10009 ft | 158 kts | 308° |
| 2026-05-08 20:25 | 62.49465 | 55.33002 | 10008 ft | 158 kts | 308° |
| 2026-05-08 20:26 | 62.50105 | 55.31072 | 10006 ft | 159 kts | 308° |
| 2026-05-08 20:26 | 62.50746 | 55.29134 | 10006 ft | 159 kts | 308° |
| 2026-05-08 20:26 | 62.51387 | 55.27198 | 10003 ft | 159 kts | 308° |
| 2026-05-08 20:26 | 62.52030 | 55.25253 | 9998 ft | 160 kts | 308° |
| 2026-05-08 20:27 | 62.52675 | 55.23300 | 9998 ft | 159 kts | 308° |
| 2026-05-08 20:27 | 62.53317 | 55.21353 | 9998 ft | 159 kts | 308° |
| 2026-05-08 20:27 | 62.53958 | 55.19409 | 9998 ft | 159 kts | 308° |
| 2026-05-08 20:27 | 62.54595 | 55.17469 | 10015 ft | 158 kts | 313° |
| 2026-05-08 20:28 | 62.55233 | 55.15535 | 10013 ft | 159 kts | 313° |
| 2026-05-08 20:28 | 62.55875 | 55.13583 | 10016 ft | 159 kts | 313° |
| 2026-05-08 20:28 | 62.56517 | 55.11628 | 10018 ft | 160 kts | 313° |
| 2026-05-08 20:28 | 62.57163 | 55.09658 | 10019 ft | 161 kts | 312° |
| 2026-05-08 20:29 | 62.57810 | 55.07684 | 10020 ft | 161 kts | 313° |
| 2026-05-08 20:29 | 62.58455 | 55.05716 | 10021 ft | 161 kts | 313° |
| 2026-05-08 20:29 | 62.59102 | 55.03742 | 10021 ft | 161 kts | 313° |
| 2026-05-08 20:29 | 62.59746 | 55.01771 | 10021 ft | 160 kts | 313° |
| 2026-05-08 20:30 | 62.60391 | 54.99800 | 10018 ft | 161 kts | 313° |
| 2026-05-08 20:30 | 62.61036 | 54.97824 | 10017 ft | 161 kts | 313° |
| 2026-05-08 20:30 | 62.61680 | 54.95847 | 10017 ft | 161 kts | 313° |
| 2026-05-08 20:30 | 62.62326 | 54.93867 | 10023 ft | 161 kts | 313° |
| 2026-05-08 20:31 | 62.62970 | 54.91889 | 10020 ft | 161 kts | 312° |
| 2026-05-08 20:31 | 62.63617 | 54.89900 | 10020 ft | 162 kts | 312° |
| 2026-05-08 20:31 | 62.64264 | 54.87907 | 10020 ft | 162 kts | 312° |
| 2026-05-08 20:31 | 62.64913 | 54.85909 | 10019 ft | 162 kts | 312° |
| 2026-05-08 20:32 | 62.65564 | 54.83905 | 10022 ft | 162 kts | 312° |
| 2026-05-08 20:32 | 62.66213 | 54.81903 | 10023 ft | 163 kts | 312° |
| 2026-05-08 20:32 | 62.66865 | 54.79890 | 10023 ft | 163 kts | 312° |
| 2026-05-08 20:32 | 62.67515 | 54.77884 | 10023 ft | 163 kts | 312° |
| 2026-05-08 20:33 | 62.68162 | 54.75877 | 10019 ft | 162 kts | 312° |
| 2026-05-08 20:33 | 62.68811 | 54.73871 | 10019 ft | 162 kts | 312° |
| 2026-05-08 20:33 | 62.69456 | 54.71875 | 10019 ft | 161 kts | 312° |
| 2026-05-08 20:33 | 62.70099 | 54.69880 | 10028 ft | 161 kts | 312° |
| 2026-05-08 20:34 | 62.70743 | 54.67882 | 10032 ft | 162 kts | 312° |
| 2026-05-08 20:34 | 62.71387 | 54.65881 | 10032 ft | 162 kts | 312° |
| 2026-05-08 20:34 | 62.72679 | 54.61863 | 10032 ft | 162 kts | 312° |
| 2026-05-08 20:35 | 62.73326 | 54.59849 | 10032 ft | 163 kts | 312° |
| 2026-05-08 20:35 | 62.73975 | 54.57824 | 10017 ft | 162 kts | 313° |
| 2026-05-08 20:35 | 62.74618 | 54.55818 | 10017 ft | 161 kts | 313° |
| 2026-05-08 20:35 | 62.75259 | 54.53820 | 10019 ft | 161 kts | 313° |
| 2026-05-08 20:36 | 62.75900 | 54.51817 | 10017 ft | 161 kts | 313° |
| 2026-05-08 20:36 | 62.76540 | 54.49816 | 10017 ft | 161 kts | 313° |
| 2026-05-08 20:36 | 62.77180 | 54.47813 | 10017 ft | 161 kts | 313° |
| 2026-05-08 20:36 | 62.77821 | 54.45803 | 10020 ft | 162 kts | 313° |
| 2026-05-08 20:37 | 62.78463 | 54.43789 | 10025 ft | 162 kts | 313° |
| 2026-05-08 20:37 | 62.79107 | 54.41768 | 10024 ft | 163 kts | 313° |
| 2026-05-08 20:37 | 62.79753 | 54.39741 | 10023 ft | 163 kts | 313° |
| 2026-05-08 20:37 | 62.80399 | 54.37707 | 10024 ft | 163 kts | 312° |
| 2026-05-08 20:38 | 62.81044 | 54.35674 | 10021 ft | 164 kts | 312° |
| 2026-05-08 20:38 | 62.81694 | 54.33632 | 10021 ft | 164 kts | 313° |
| 2026-05-08 20:38 | 62.82344 | 54.31585 | 10021 ft | 165 kts | 312° |
| 2026-05-08 20:38 | 62.82997 | 54.29525 | 10022 ft | 166 kts | 312° |
| 2026-05-08 20:39 | 62.83657 | 54.27441 | 10025 ft | 168 kts | 312° |
| 2026-05-08 20:39 | 62.84320 | 54.25344 | 10025 ft | 168 kts | 312° |
| 2026-05-08 20:39 | 62.84983 | 54.23247 | 10025 ft | 169 kts | 312° |
| 2026-05-08 20:39 | 62.85648 | 54.21136 | 10033 ft | 169 kts | 312° |
| 2026-05-08 20:40 | 62.86314 | 54.19023 | 10030 ft | 169 kts | 312° |
| 2026-05-08 20:40 | 62.87081 | 54.17136 | 9985 ft | 165 kts | 330° |
| 2026-05-08 20:40 | 62.88035 | 54.15921 | 9850 ft | 156 kts | 341° |
| 2026-05-08 20:40 | 62.88989 | 54.14866 | 9705 ft | 153 kts | 342° |
| 2026-05-08 20:41 | 62.89930 | 54.13829 | 9569 ft | 151 kts | 342° |
| 2026-05-08 20:41 | 62.90864 | 54.12798 | 9429 ft | 150 kts | 342° |
| 2026-05-08 20:41 | 62.91790 | 54.11775 | 9297 ft | 149 kts | 341° |
| 2026-05-08 20:41 | 62.92711 | 54.10755 | 9161 ft | 148 kts | 341° |
| 2026-05-08 20:42 | 62.93631 | 54.09735 | 9025 ft | 148 kts | 341° |
| 2026-05-08 20:42 | 62.94550 | 54.08715 | 8888 ft | 148 kts | 341° |
| 2026-05-08 20:42 | 62.95464 | 54.07698 | 8754 ft | 148 kts | 341° |
| 2026-05-08 20:42 | 62.96379 | 54.06689 | 8616 ft | 147 kts | 339° |
| 2026-05-08 20:43 | 62.97291 | 54.05669 | 8461 ft | 148 kts | 339° |
| 2026-05-08 20:43 | 62.98214 | 54.04637 | 8300 ft | 149 kts | 339° |
| 2026-05-08 20:43 | 62.99138 | 54.03606 | 8141 ft | 150 kts | 339° |
| 2026-05-08 20:43 | 63.00068 | 54.02570 | 7981 ft | 150 kts | 339° |
| 2026-05-08 20:44 | 63.00995 | 54.01537 | 7830 ft | 150 kts | 339° |
| 2026-05-08 20:44 | 63.01926 | 54.00498 | 7671 ft | 150 kts | 339° |
| 2026-05-08 20:44 | 63.02851 | 53.99464 | 7514 ft | 150 kts | 339° |
| 2026-05-08 20:44 | 63.03778 | 53.98428 | 7358 ft | 149 kts | 339° |
| 2026-05-08 20:45 | 63.04701 | 53.97395 | 7204 ft | 149 kts | 339° |
| 2026-05-08 20:45 | 63.05621 | 53.96364 | 7050 ft | 149 kts | 339° |
| 2026-05-08 20:45 | 63.06540 | 53.95336 | 6897 ft | 148 kts | 339° |
| 2026-05-08 20:45 | 63.07459 | 53.94304 | 6752 ft | 148 kts | 339° |
| 2026-05-08 20:46 | 63.08376 | 53.93275 | 6609 ft | 148 kts | 339° |
| 2026-05-08 20:46 | 63.09291 | 53.92248 | 6445 ft | 148 kts | 339° |
| 2026-05-08 20:46 | 63.10207 | 53.91218 | 6288 ft | 148 kts | 339° |
| 2026-05-08 20:46 | 63.11120 | 53.90191 | 6126 ft | 148 kts | 339° |
| 2026-05-08 20:47 | 63.12033 | 53.89165 | 5963 ft | 147 kts | 339° |
| 2026-05-08 20:47 | 63.12946 | 53.88137 | 5804 ft | 148 kts | 339° |
| 2026-05-08 20:47 | 63.13858 | 53.87109 | 5640 ft | 147 kts | 339° |
| 2026-05-08 20:47 | 63.14766 | 53.86085 | 5481 ft | 147 kts | 339° |
| 2026-05-08 20:48 | 63.15674 | 53.85061 | 5323 ft | 146 kts | 339° |
| 2026-05-08 20:48 | 63.16578 | 53.84040 | 5176 ft | 146 kts | 339° |
| 2026-05-08 20:48 | 63.17426 | 53.83075 | 5227 ft | 134 kts | 339° |
| 2026-05-08 20:48 | 63.18282 | 53.82113 | 5041 ft | 141 kts | 339° |
| 2026-05-08 20:49 | 63.19169 | 53.81114 | 4835 ft | 145 kts | 339° |
| 2026-05-08 20:49 | 63.20075 | 53.80087 | 4615 ft | 147 kts | 339° |
| 2026-05-08 20:49 | 63.21006 | 53.79187 | 4407 ft | 145 kts | 351° |
| 2026-05-08 20:49 | 63.21988 | 53.78711 | 4203 ft | 145 kts | 353° |
| 2026-05-08 20:50 | 63.22964 | 53.78254 | 3990 ft | 142 kts | 354° |
| 2026-05-08 20:50 | 63.23919 | 53.77807 | 3774 ft | 140 kts | 354° |
| 2026-05-08 20:50 | 63.24862 | 53.77361 | 3555 ft | 139 kts | 353° |
| 2026-05-08 20:50 | 63.25803 | 53.76917 | 3348 ft | 138 kts | 353° |
| 2026-05-08 20:51 | 63.26741 | 53.76475 | 3140 ft | 138 kts | 353° |
| 2026-05-08 20:51 | 63.27681 | 53.76033 | 2927 ft | 138 kts | 353° |
| 2026-05-08 20:51 | 63.28616 | 53.75591 | 2717 ft | 138 kts | 353° |
| 2026-05-08 20:51 | 63.29552 | 53.75149 | 2506 ft | 138 kts | 353° |
| 2026-05-08 20:52 | 63.30487 | 53.74707 | 2291 ft | 137 kts | 353° |
| 2026-05-08 20:52 | 63.31420 | 53.74265 | 2088 ft | 138 kts | 353° |
| 2026-05-08 20:52 | 63.32346 | 53.73827 | 1999 ft | 135 kts | 353° |
| 2026-05-08 20:52 | 63.33273 | 53.73388 | 1993 ft | 138 kts | 353° |
| 2026-05-08 20:53 | 63.34221 | 53.72938 | 2000 ft | 141 kts | 353° |
| 2026-05-08 20:53 | 63.35186 | 53.72480 | 1998 ft | 142 kts | 353° |
| 2026-05-08 20:53 | 63.36156 | 53.72020 | 1999 ft | 143 kts | 353° |
| 2026-05-08 20:53 | 63.37133 | 53.71556 | 1991 ft | 144 kts | 353° |
| 2026-05-08 20:54 | 63.38108 | 53.71094 | 1994 ft | 144 kts | 353° |
| 2026-05-08 20:54 | 63.39083 | 53.70631 | 2001 ft | 144 kts | 353° |
| 2026-05-08 20:54 | 63.40063 | 53.70350 | 1998 ft | 140 kts | 7° |
| 2026-05-08 20:54 | 63.41001 | 53.70788 | 2001 ft | 136 kts | 19° |
| 2026-05-08 20:55 | 63.41874 | 53.71317 | 1980 ft | 121 kts | 19° |
| 2026-05-08 20:55 | 63.42637 | 53.71780 | 1987 ft | 110 kts | 20° |
| 2026-05-08 20:55 | 63.43358 | 53.72223 | 1990 ft | 106 kts | 20° |
| 2026-05-08 20:55 | 63.44064 | 53.72659 | 1985 ft | 105 kts | 20° |
| 2026-05-08 20:56 | 63.44773 | 53.73097 | 1992 ft | 106 kts | 20° |
| 2026-05-08 20:56 | 63.45483 | 53.73535 | 1989 ft | 105 kts | 20° |
| 2026-05-08 20:56 | 63.46152 | 53.73947 | 1997 ft | 97 kts | 20° |
| 2026-05-08 20:56 | 63.46790 | 53.74340 | 2005 ft | 94 kts | 21° |
| 2026-05-08 20:57 | 63.47416 | 53.74726 | 2008 ft | 93 kts | 21° |
| 2026-05-08 20:57 | 63.48039 | 53.75109 | 2005 ft | 93 kts | 21° |
| 2026-05-08 20:57 | 63.48640 | 53.75476 | 2050 ft | 82 kts | 20° |
| 2026-05-08 20:57 | 63.49203 | 53.75778 | 1947 ft | 84 kts | 19° |
| 2026-05-08 20:58 | 63.49768 | 53.76120 | 1832 ft | 84 kts | 20° |
| 2026-05-08 20:58 | 63.50335 | 53.76484 | 1710 ft | 85 kts | 20° |
| 2026-05-08 20:58 | 63.50908 | 53.76837 | 1548 ft | 87 kts | 17° |
| 2026-05-08 20:58 | 63.51495 | 53.77178 | 1364 ft | 88 kts | 19° |
| 2026-05-08 20:59 | 63.52077 | 53.77603 | 1227 ft | 88 kts | 20° |
| 2026-05-08 20:59 | 63.52650 | 53.78007 | 1141 ft | 85 kts | 17° |
| 2026-05-08 20:59 | 63.53228 | 53.78316 | 1067 ft | 86 kts | 12° |
| 2026-05-08 20:59 | 63.53802 | 53.78650 | 956 ft | 85 kts | 16° |
| 2026-05-08 21:00 | 63.54373 | 53.79020 | 842 ft | 86 kts | 15° |
| 2026-05-08 21:00 | 63.54950 | 53.79366 | 669 ft | 84 kts | 14° |
| 2026-05-08 21:00 | 63.55498 | 53.79712 | 519 ft | 80 kts | 14° |
| 2026-05-08 21:00 | 63.55905 | 53.79967 | 473 ft | 27 kts | 16° |
| 2026-05-08 21:01 | 63.56057 | 53.80060 | 469 ft | 22 kts | 16° |
| 2026-05-08 21:01 | 63.56206 | 53.80156 | 464 ft | 22 kts | 16° |
| 2026-05-08 21:01 | 63.56340 | 53.80272 | 460 ft | 21 kts | 26° |
| 2026-05-08 21:01 | 63.56280 | 53.80200 | 462 ft | 29 kts | 196° |
| 2026-05-08 21:02 | 63.56099 | 53.80088 | 468 ft | 25 kts | 196° |
| 2026-05-08 21:02 | 63.55940 | 53.79991 | 472 ft | 23 kts | 195° |
| 2026-05-08 21:02 | 63.55815 | 53.80119 | 471 ft | 11 kts | 150° |
| 2026-05-08 21:02 | 63.55739 | 53.80213 | 472 ft | 14 kts | 144° |
| 2026-05-08 21:03 | 63.55740 | 53.80429 | 472 ft | 10 kts | 84° |
| 2026-05-08 21:03 | 63.55774 | 53.80507 | 471 ft | 10 kts | 328° |
| 2026-05-08 21:03 | 63.55789 | 53.80426 | 471 ft | 0 kts | 288° |